Time;durP1;ratioP1;P1;durP2;ratioP2;P2;SDS_P1;SDS_P2;PMS_P1;PMS_P2;Temp;Humidity;BMP_temperature;BMP_pressure;BME280_temperature;BME280_humidity;BME280_pressure;Samples;Min_cycle;Max_cycle;Signal;HPM_P1;HPM_P2
2023/03/02 00:00:15;;;;;;;0.10;0.10;;;;;;;;;;5015089;28;20200;-88
2023/03/02 00:02:46;;;;;;;0.10;0.10;;;;;;;;;;5014412;28;20196;-89
2023/03/02 00:05:17;;;;;;;0.40;0.40;;;;;;;;;;5015190;28;20242;-91
2023/03/02 00:07:45;;;;;;;0.77;0.73;;;;;;;;;;5015129;28;20224;-90
2023/03/02 00:10:25;;;;;;;0.20;0.20;;;;;;;;;;5014683;28;20229;-89
2023/03/02 00:12:57;;;;;;;0.10;0.10;;;;;;;;;;5014698;28;20192;-89
2023/03/02 00:15:27;;;;;;;0.00;0.00;;;;;;;;;;5015134;28;20645;-90
2023/03/02 00:17:56;;;;;;;0.23;0.23;;;;;;;;;;5014295;28;20208;-91
2023/03/02 00:20:25;;;;;;;0.00;0.00;;;;;;;;;;5014574;28;20290;-91
2023/03/02 00:22:55;;;;;;;0.83;0.33;;;;;;;;;;5015127;28;20200;-88
2023/03/02 00:25:35;;;;;;;0.10;0.10;;;;;;;;;;5015069;28;20289;-90
2023/03/02 00:28:10;;;;;;;0.20;0.20;;;;;;;;;;5014520;28;20203;-90
2023/03/02 00:30:42;;;;;;;0.00;0.00;;;;;;;;;;5013437;28;20254;-89
2023/03/02 00:33:12;;;;;;;0.57;0.47;;;;;;;;;;5015362;28;20258;-91
2023/03/02 00:35:44;;;;;;;0.00;0.00;;;;;;;;;;5017165;28;20287;-90
2023/03/02 00:38:12;;;;;;;0.30;0.30;;;;;;;;;;5018995;28;20188;-90
2023/03/02 00:40:44;;;;;;;0.00;0.00;;;;;;;;;;5018364;28;20323;-90
2023/03/02 00:43:13;;;;;;;0.43;0.37;;;;;;;;;;5017288;28;20197;-89
2023/03/02 00:45:41;;;;;;;0.00;0.00;;;;;;;;;;5018286;28;20204;-87
2023/03/02 00:48:10;;;;;;;0.30;0.30;;;;;;;;;;5019322;28;20200;-90
2023/03/02 00:50:39;;;;;;;0.13;0.13;;;;;;;;;;5017830;28;20208;-89
2023/03/02 00:53:10;;;;;;;0.10;0.10;;;;;;;;;;5018378;28;20200;-91
2023/03/02 00:55:40;;;;;;;0.30;0.20;;;;;;;;;;5017567;28;20243;-89
2023/03/02 00:58:08;;;;;;;0.00;0.00;;;;;;;;;;5017823;28;20295;-89
2023/03/02 01:00:39;;;;;;;0.10;0.10;;;;;;;;;;5017498;28;20232;-89
2023/03/02 01:03:10;;;;;;;0.10;0.10;;;;;;;;;;5018179;28;20263;-90
2023/03/02 01:05:37;;;;;;;0.50;0.10;;;;;;;;;;5018204;28;20209;-90
2023/03/02 01:08:07;;;;;;;0.10;0.10;;;;;;;;;;5017511;28;20205;-89
2023/03/02 01:10:36;;;;;;;0.10;0.10;;;;;;;;;;5016902;28;20233;-88
2023/03/02 01:13:07;;;;;;;0.43;0.30;;;;;;;;;;5017074;28;20216;-89
2023/03/02 01:15:37;;;;;;;0.53;0.20;;;;;;;;;;5017125;28;20608;-89
2023/03/02 01:18:05;;;;;;;0.27;0.27;;;;;;;;;;5017050;28;20200;-89
2023/03/02 01:20:36;;;;;;;0.10;0.10;;;;;;;;;;5017035;28;20216;-90
2023/03/02 01:23:07;;;;;;;0.10;0.10;;;;;;;;;;5017722;28;20208;-88
2023/03/02 01:25:34;;;;;;;0.03;0.03;;;;;;;;;;5017605;28;20201;-89
2023/03/02 01:28:09;;;;;;;0.00;0.00;;;;;;;;;;5017781;28;20219;-90
2023/03/02 01:30:42;;;;;;;0.67;0.37;;;;;;;;;;5018645;28;20287;-90
2023/03/02 01:33:30;;;;;;;;;;;;;;;;;;;;;
2023/03/02 01:35:59;;;;;;;0.00;0.00;;;;;;;;;;5041449;28;20200;-88
2023/03/02 01:38:35;;;;;;;0.03;0.03;;;;;;;;;;5041709;28;20192;-88
2023/03/02 01:43:46;;;;;;;0.10;0.10;;;;;;;;;;5029506;28;20204;-89
2023/03/02 01:46:18;;;;;;;0.30;0.30;;;;;;;;;;5036575;28;20257;-89
2023/03/02 01:48:48;;;;;;;0.10;0.10;;;;;;;;;;5028387;28;20196;-88
2023/03/02 01:51:17;;;;;;;0.20;0.20;;;;;;;;;;5037233;28;20211;-89
2023/03/02 01:53:46;;;;;;;0.03;0.03;;;;;;;;;;5037061;28;20199;-89
2023/03/02 01:56:17;;;;;;;0.00;0.00;;;;;;;;;;5036083;28;20211;-89
2023/03/02 01:58:45;;;;;;;0.00;0.00;;;;;;;;;;5037337;28;20254;-90
2023/03/02 02:01:16;;;;;;;0.30;0.30;;;;;;;;;;5036482;28;20734;-90
2023/03/02 02:03:49;;;;;;;0.33;0.17;;;;;;;;;;5036704;28;20214;-89
2023/03/02 02:06:20;;;;;;;0.00;0.00;;;;;;;;;;5036818;28;20200;-89
2023/03/02 02:08:53;;;;;;;0.00;0.00;;;;;;;;;;5028566;28;20211;-88
2023/03/02 02:11:21;;;;;;;0.00;0.00;;;;;;;;;;5035772;28;20236;-90
2023/03/02 02:13:50;;;;;;;0.00;0.00;;;;;;;;;;5028781;28;20196;-87
2023/03/02 02:16:25;;;;;;;0.00;0.00;;;;;;;;;;5036236;28;20668;-89
2023/03/02 02:19:12;;;;;;;0.47;0.47;;;;;;;;;;5036337;28;20223;-89
2023/03/02 02:21:45;;;;;;;0.00;0.00;;;;;;;;;;5040422;28;20816;-88
2023/03/02 02:24:20;;;;;;;0.00;0.00;;;;;;;;;;5037690;28;20208;-90
2023/03/02 02:26:53;;;;;;;0.00;0.00;;;;;;;;;;5030100;28;20317;-89
2023/03/02 02:29:21;;;;;;;0.30;0.30;;;;;;;;;;5036968;28;20219;-87
2023/03/02 02:31:55;;;;;;;0.10;0.10;;;;;;;;;;5036144;28;20196;-88
2023/03/02 02:34:28;;;;;;;0.00;0.00;;;;;;;;;;5036479;28;20210;-90
2023/03/02 02:37:01;;;;;;;0.10;0.10;;;;;;;;;;5036629;28;20282;-89
2023/03/02 02:39:30;;;;;;;0.10;0.10;;;;;;;;;;5036521;28;20621;-89
2023/03/02 02:42:07;;;;;;;0.00;0.00;;;;;;;;;;5035949;28;20227;-90
2023/03/02 02:44:35;;;;;;;0.13;0.13;;;;;;;;;;5037200;28;20204;-88
2023/03/02 02:47:04;;;;;;;1.80;0.30;;;;;;;;;;5035603;28;20223;-89
2023/03/02 02:49:33;;;;;;;0.40;0.40;;;;;;;;;;5035841;28;20200;-90
2023/03/02 02:52:00;;;;;;;0.27;0.27;;;;;;;;;;5035793;28;20200;-89
2023/03/02 02:54:28;;;;;;;0.10;0.10;;;;;;;;;;5035378;28;20659;-89
2023/03/02 02:56:57;;;;;;;0.00;0.00;;;;;;;;;;5035637;28;20621;-90
2023/03/02 02:59:33;;;;;;;0.00;0.00;;;;;;;;;;5034639;28;20227;-88
2023/03/02 03:02:01;;;;;;;0.00;0.00;;;;;;;;;;5034825;28;20245;-88
2023/03/02 03:04:30;;;;;;;0.00;0.00;;;;;;;;;;5035821;28;20204;-88
2023/03/02 03:07:12;;;;;;;0.07;0.07;;;;;;;;;;5035763;28;20207;-91
2023/03/02 03:09:40;;;;;;;0.13;0.13;;;;;;;;;;5035145;28;20402;-88
2023/03/02 03:12:12;;;;;;;0.00;0.00;;;;;;;;;;5035259;28;20207;-88
2023/03/02 03:14:53;;;;;;;0.00;0.00;;;;;;;;;;5034559;28;20192;-89
2023/03/02 03:17:21;;;;;;;0.00;0.00;;;;;;;;;;5035114;28;20227;-88
2023/03/02 03:19:50;;;;;;;0.00;0.00;;;;;;;;;;5026268;28;20199;-89
2023/03/02 03:22:18;;;;;;;0.00;0.00;;;;;;;;;;5034209;28;20228;-88
2023/03/02 03:24:46;;;;;;;0.10;0.10;;;;;;;;;;5034428;28;20227;-88
2023/03/02 03:27:15;;;;;;;0.10;0.10;;;;;;;;;;5034306;28;20199;-90
2023/03/02 03:29:46;;;;;;;0.60;0.60;;;;;;;;;;5035499;28;20624;-89
2023/03/02 03:32:14;;;;;;;0.57;0.20;;;;;;;;;;5033326;28;20228;-89
2023/03/02 03:34:43;;;;;;;0.00;0.00;;;;;;;;;;5034910;28;20203;-89
2023/03/02 03:37:14;;;;;;;0.00;0.00;;;;;;;;;;5037388;28;20196;-89
2023/03/02 03:39:42;;;;;;;0.20;0.20;;;;;;;;;;5041640;28;20199;-87
2023/03/02 03:42:09;;;;;;;0.20;0.20;;;;;;;;;;5040424;28;20262;-89
2023/03/02 03:44:43;;;;;;;0.10;0.10;;;;;;;;;;5040543;28;20203;-88
2023/03/02 03:47:15;;;;;;;0.00;0.00;;;;;;;;;;5050618;28;20192;-87
2023/03/02 03:49:44;;;;;;;0.60;0.60;;;;;;;;;;5053065;28;20227;-90
2023/03/02 03:52:13;;;;;;;0.00;0.00;;;;;;;;;;5049802;28;20234;-90
2023/03/02 03:54:42;;;;;;;0.13;0.13;;;;;;;;;;5051541;28;20275;-89
2023/03/02 03:57:13;;;;;;;0.00;0.00;;;;;;;;;;5054178;28;20557;-87
2023/03/02 03:59:41;;;;;;;0.30;0.30;;;;;;;;;;5049783;28;20226;-87
2023/03/02 04:02:15;;;;;;;0.20;0.20;;;;;;;;;;5047480;28;20227;-88
2023/03/02 04:04:47;;;;;;;0.00;0.00;;;;;;;;;;5050366;28;20210;-89
2023/03/02 04:07:20;;;;;;;0.70;0.10;;;;;;;;;;5052737;28;20202;-88
2023/03/02 04:09:48;;;;;;;0.20;0.20;;;;;;;;;;5047569;28;20235;-89
2023/03/02 04:12:16;;;;;;;0.00;0.00;;;;;;;;;;5049627;28;20201;-90
2023/03/02 04:14:44;;;;;;;0.10;0.10;;;;;;;;;;5051934;28;20231;-90
2023/03/02 04:17:23;;;;;;;0.00;0.00;;;;;;;;;;5050568;28;20207;-89
2023/03/02 04:19:58;;;;;;;0.00;0.00;;;;;;;;;;5054850;28;20184;-89
2023/03/02 04:22:31;;;;;;;0.00;0.00;;;;;;;;;;5050624;28;20232;-89
2023/03/02 04:25:00;;;;;;;2.63;0.30;;;;;;;;;;5049143;28;20196;-89
2023/03/02 04:27:31;;;;;;;0.03;0.03;;;;;;;;;;5045965;28;20204;-90
2023/03/02 04:30:03;;;;;;;0.10;0.10;;;;;;;;;;5042234;28;20196;-91
2023/03/02 04:32:36;;;;;;;0.23;0.23;;;;;;;;;;5039240;28;20203;-90
2023/03/02 04:35:12;;;;;;;0.00;0.00;;;;;;;;;;5044556;28;20195;-89
2023/03/02 04:37:53;;;;;;;0.20;0.20;;;;;;;;;;5042247;28;20449;-89
2023/03/02 04:40:29;;;;;;;0.17;0.17;;;;;;;;;;5037799;28;20204;-91
2023/03/02 04:43:06;;;;;;;0.00;0.00;;;;;;;;;;5037418;28;20227;-89
2023/03/02 04:45:42;;;;;;;0.00;0.00;;;;;;;;;;5037334;28;20196;-90
2023/03/02 04:48:21;;;;;;;0.10;0.10;;;;;;;;;;5038020;28;20205;-91
2023/03/02 04:51:07;;;;;;;0.20;0.20;;;;;;;;;;5040912;28;20218;-88
2023/03/02 04:53:43;;;;;;;0.20;0.20;;;;;;;;;;5046900;28;20263;-88
2023/03/02 04:56:19;;;;;;;0.53;0.53;;;;;;;;;;5044012;28;20195;-87
2023/03/02 04:58:51;;;;;;;0.50;0.50;;;;;;;;;;5044581;28;20212;-87
2023/03/02 05:01:20;;;;;;;0.00;0.00;;;;;;;;;;5036376;28;20195;-90
2023/03/02 05:04:12;;;;;;;0.10;0.10;;;;;;;;;;5035329;28;20295;-92
2023/03/02 05:06:44;;;;;;;0.10;0.10;;;;;;;;;;5036994;28;20196;-90
2023/03/02 05:09:18;;;;;;;0.13;0.13;;;;;;;;;;5035745;28;20311;-91
2023/03/02 05:11:50;;;;;;;0.00;0.00;;;;;;;;;;5035116;28;20247;-90
2023/03/02 05:14:21;;;;;;;1.00;0.20;;;;;;;;;;5035757;28;20220;-89
2023/03/02 05:16:50;;;;;;;0.30;0.30;;;;;;;;;;5024219;28;20208;-90
2023/03/02 05:19:22;;;;;;;0.00;0.00;;;;;;;;;;5033027;28;20195;-89
2023/03/02 05:22:07;;;;;;;0.13;0.13;;;;;;;;;;5027269;28;20200;-91
2023/03/02 05:24:43;;;;;;;0.20;0.20;;;;;;;;;;5036524;28;20738;-87
2023/03/02 05:30:31;;;;;;;0.10;0.10;;;;;;;;;;5037177;28;20628;-89
2023/03/02 05:32:59;;;;;;;0.50;0.50;;;;;;;;;;5036211;28;20688;-89
2023/03/02 05:35:27;;;;;;;0.20;0.20;;;;;;;;;;5036149;28;20259;-89
2023/03/02 05:38:01;;;;;;;0.10;0.10;;;;;;;;;;5036745;28;20577;-90
2023/03/02 05:40:30;;;;;;;0.37;0.37;;;;;;;;;;5037098;28;20722;-91
2023/03/02 05:43:00;;;;;;;0.53;0.47;;;;;;;;;;5036365;28;20232;-90
2023/03/02 05:45:30;;;;;;;0.20;0.20;;;;;;;;;;5041403;28;20196;-90
2023/03/02 05:48:07;;;;;;;0.50;0.50;;;;;;;;;;5041547;28;20304;-90
2023/03/02 05:50:39;;;;;;;1.43;1.43;;;;;;;;;;5044667;28;20274;-89
2023/03/02 05:53:20;;;;;;;0.60;0.60;;;;;;;;;;5040128;28;20200;-91
2023/03/02 05:55:49;;;;;;;0.43;0.43;;;;;;;;;;5038587;28;20200;-88
2023/03/02 05:58:20;;;;;;;1.70;0.60;;;;;;;;;;5037423;28;20644;-90
2023/03/02 06:00:50;;;;;;;0.57;0.47;;;;;;;;;;5036865;28;20206;-90
2023/03/02 06:03:18;;;;;;;0.57;0.47;;;;;;;;;;5037201;28;20230;-90
2023/03/02 06:05:49;;;;;;;4.93;2.07;;;;;;;;;;5029417;28;20279;-89
2023/03/02 06:08:23;;;;;;;0.40;0.40;;;;;;;;;;5038215;28;20657;-91
2023/03/02 06:10:56;;;;;;;0.33;0.33;;;;;;;;;;5038096;28;20361;-90
2023/03/02 06:13:29;;;;;;;1.20;0.77;;;;;;;;;;5038283;28;20208;-90
2023/03/02 06:16:05;;;;;;;0.33;0.33;;;;;;;;;;5038920;28;20203;-89
2023/03/02 06:18:47;;;;;;;0.57;0.47;;;;;;;;;;5041155;28;20196;-88
2023/03/02 06:21:16;;;;;;;0.63;0.63;;;;;;;;;;5040400;28;20192;-90
2023/03/02 06:23:52;;;;;;;2.07;0.90;;;;;;;;;;5037035;28;20232;-91
2023/03/02 06:26:27;;;;;;;0.90;0.23;;;;;;;;;;5037050;28;20203;-91
2023/03/02 06:28:58;;;;;;;0.50;0.50;;;;;;;;;;5036842;28;20254;-88
2023/03/02 06:31:30;;;;;;;0.27;0.27;;;;;;;;;;5036601;28;20207;-90
2023/03/02 06:34:05;;;;;;;0.30;0.30;;;;;;;;;;5036416;28;20208;-90
2023/03/02 06:36:37;;;;;;;1.13;0.83;;;;;;;;;;5035806;28;20253;-91
2023/03/02 06:39:26;;;;;;;0.00;0.00;;;;;;;;;;5035890;28;20200;-90
2023/03/02 06:41:54;;;;;;;0.40;0.40;;;;;;;;;;5035871;28;20208;-90
2023/03/02 06:44:29;;;;;;;0.73;0.20;;;;;;;;;;5035861;28;20227;-92
2023/03/02 06:46:58;;;;;;;0.10;0.10;;;;;;;;;;5035904;28;20206;-89
2023/03/02 06:49:27;;;;;;;0.60;0.60;;;;;;;;;;5036359;28;20661;-89
2023/03/02 06:52:00;;;;;;;0.10;0.10;;;;;;;;;;5036116;28;20323;-89
2023/03/02 06:54:45;;;;;;;0.30;0.30;;;;;;;;;;5036305;28;20200;-90
2023/03/02 06:57:23;;;;;;;0.50;0.20;;;;;;;;;;5033820;28;20200;-91
2023/03/02 07:00:08;;;;;;;0.27;0.27;;;;;;;;;;5028472;28;20677;-92
2023/03/02 07:05:53;;;;;;;0.77;0.77;;;;;;;;;;5036743;28;20234;-91
2023/03/02 07:08:25;;;;;;;0.63;0.63;;;;;;;;;;5037542;28;20581;-90
2023/03/02 07:11:09;;;;;;;0.60;0.60;;;;;;;;;;5036255;28;20362;-92
2023/03/02 07:13:47;;;;;;;0.67;0.30;;;;;;;;;;5036649;28;20204;-91
2023/03/02 07:16:21;;;;;;;0.30;0.30;;;;;;;;;;5038242;28;20203;-90
2023/03/02 07:18:50;;;;;;;0.20;0.20;;;;;;;;;;5042531;28;20263;-89
2023/03/02 07:21:17;;;;;;;1.17;0.67;;;;;;;;;;5040266;28;20222;-88
2023/03/02 07:23:55;;;;;;;0.87;0.50;;;;;;;;;;5040028;28;20240;-91
2023/03/02 07:26:32;;;;;;;0.27;0.27;;;;;;;;;;5038996;28;20195;-90
2023/03/02 07:29:24;;;;;;;0.93;0.93;;;;;;;;;;5037350;28;20207;-91
2023/03/02 07:32:07;;;;;;;0.20;0.20;;;;;;;;;;5030134;28;20689;-91
2023/03/02 07:34:36;;;;;;;2.37;0.90;;;;;;;;;;5040177;28;20199;-92
2023/03/02 07:37:13;;;;;;;0.20;0.20;;;;;;;;;;5034872;28;20739;-90
2023/03/02 07:39:51;;;;;;;0.20;0.20;;;;;;;;;;5034919;28;20227;-91
2023/03/02 07:42:41;;;;;;;0.77;0.77;;;;;;;;;;5037677;28;20215;-90
2023/03/02 07:45:36;;;;;;;1.43;0.83;;;;;;;;;;5033376;28;20653;-89
2023/03/02 07:48:39;;;;;;;0.10;0.10;;;;;;;;;;5034482;28;20204;-91
2023/03/02 07:57:28;;;;;;;0.30;0.30;;;;;;;;;;5021957;28;20253;-91
2023/03/02 08:00:09;;;;;;;0.33;0.33;;;;;;;;;;5035929;28;20204;-92
2023/03/02 08:02:52;;;;;;;0.27;0.27;;;;;;;;;;5035340;28;20204;-92
2023/03/02 08:08:29;;;;;;;0.10;0.10;;;;;;;;;;5034058;28;20235;-90
2023/03/02 08:14:22;;;;;;;0.37;0.37;;;;;;;;;;5017045;28;20269;-90
2023/03/02 08:17:01;;;;;;;0.17;0.17;;;;;;;;;;5034845;28;20223;-92
2023/03/02 08:19:53;;;;;;;;;;;;;;;;;;;;;
2023/03/02 08:25:37;;;;;;;0.10;0.10;;;;;;;;;;5047389;28;20210;-89
2023/03/02 08:28:24;;;;;;;0.90;0.90;;;;;;;;;;5044964;28;20731;-92
2023/03/02 08:31:20;;;;;;;0.53;0.53;;;;;;;;;;5048416;28;20497;-89
2023/03/02 08:36:59;;;;;;;0.40;0.40;;;;;;;;;;5037247;28;20267;-92
2023/03/02 08:39:40;;;;;;;0.50;0.43;;;;;;;;;;5041479;28;20210;-92
2023/03/02 08:45:23;;;;;;;;;;;;;;;;;;;;;
2023/03/02 08:48:06;;;;;;;0.73;0.60;;;;;;;;;;5034016;28;20195;-91
2023/03/02 08:50:54;;;;;;;0.70;0.70;;;;;;;;;;5033827;28;20215;-91
2023/03/02 08:53:47;;;;;;;0.10;0.10;;;;;;;;;;5033105;28;20208;-91
2023/03/02 08:56:31;;;;;;;2.00;0.60;;;;;;;;;;5035039;28;20246;-91
2023/03/02 08:59:07;;;;;;;1.40;1.17;;;;;;;;;;5037477;28;20258;-92
2023/03/02 09:02:03;;;;;;;3.10;1.00;;;;;;;;;;5037134;28;20195;-90
2023/03/02 09:05:17;;;;;;;;;;;;;;;;;;;;;
2023/03/02 09:08:10;;;;;;;0.27;0.27;;;;;;;;;;5037545;28;20196;-90
2023/03/02 09:11:08;;;;;;;;;;;;;;;;;;;;;
2023/03/02 09:38:27;;;;;;;0.83;0.50;;;;;;;;;;5074362;23;20230;-93
2023/03/02 09:47:48;;;;;;;0.70;0.70;;;;;;;;;;5076743;28;20199;-93
2023/03/02 09:53:48;;;;;;;;;;;;;;;;;;;;;
2023/03/02 09:56:34;;;;;;;0.57;0.57;;;;;;;;;;5073447;28;20202;-92
2023/03/02 10:05:16;;;;;;;;;;;;;;;;;;;;;
2023/03/02 10:08:01;;;;;;;1.60;0.83;;;;;;;;;;5074172;28;20760;-91
2023/03/02 10:10:47;;;;;;;0.43;0.10;;;;;;;;;;5074981;28;20222;-92
2023/03/02 10:13:21;;;;;;;0.30;0.30;;;;;;;;;;5075256;28;20261;-91
2023/03/02 10:16:03;;;;;;;0.57;0.57;;;;;;;;;;5075733;28;20202;-89
2023/03/02 10:18:48;;;;;;;0.47;0.47;;;;;;;;;;5075834;28;20203;-91
2023/03/02 10:21:23;;;;;;;0.47;0.47;;;;;;;;;;5074971;28;20277;-91
2023/03/02 10:24:13;;;;;;;0.00;0.00;;;;;;;;;;5075232;28;20229;-90
2023/03/02 10:27:03;;;;;;;0.00;0.00;;;;;;;;;;5083093;28;20225;-91
2023/03/02 10:29:56;;;;;;;0.47;0.47;;;;;;;;;;5087045;28;20209;-92
2023/03/02 10:32:32;;;;;;;1.20;1.10;;;;;;;;;;5066215;28;20202;-90
2023/03/02 10:35:21;;;;;;;;;;;;;;;;;;;;;
2023/03/02 10:37:56;;;;;;;0.37;0.37;;;;;;;;;;5092277;28;20651;-91
2023/03/02 10:40:30;;;;;;;0.60;0.60;;;;;;;;;;5095248;28;20216;-91
2023/03/02 10:43:22;;;;;;;0.10;0.10;;;;;;;;;;5095338;28;20193;-91
2023/03/02 10:46:08;;;;;;;0.73;0.70;;;;;;;;;;5094324;28;20801;-90
2023/03/02 10:48:46;;;;;;;1.87;0.37;;;;;;;;;;5096082;28;20580;-89
2023/03/02 10:51:25;;;;;;;0.93;0.93;;;;;;;;;;5095876;28;20186;-90
2023/03/02 10:54:15;;;;;;;0.37;0.37;;;;;;;;;;5096276;28;20189;-90
2023/03/02 10:57:06;;;;;;;0.00;0.00;;;;;;;;;;5102992;28;20206;-90
2023/03/02 11:00:00;;;;;;;1.00;0.77;;;;;;;;;;5108611;28;20194;-89
2023/03/02 11:02:37;;;;;;;0.33;0.23;;;;;;;;;;5114219;28;20678;-88
2023/03/02 11:05:35;;;;;;;0.60;0.60;;;;;;;;;;5111405;28;20251;-90
2023/03/02 11:08:30;;;;;;;0.17;0.17;;;;;;;;;;5099437;28;20205;-91
2023/03/02 11:11:02;;;;;;;0.10;0.10;;;;;;;;;;5094658;28;20300;-89
2023/03/02 11:13:42;;;;;;;0.20;0.20;;;;;;;;;;5094854;28;20285;-88
2023/03/02 11:16:41;;;;;;;0.43;0.43;;;;;;;;;;5094641;28;20197;-91
2023/03/02 11:19:28;;;;;;;0.40;0.40;;;;;;;;;;5093916;28;20198;-91
2023/03/02 11:22:30;;;;;;;;;;;;;;;;;;;;;
2023/03/02 11:25:14;;;;;;;0.33;0.33;;;;;;;;;;5093996;28;20217;-89
2023/03/02 11:27:58;;;;;;;0.60;0.47;;;;;;;;;;5093517;28;20200;-89
2023/03/02 11:30:30;;;;;;;1.00;0.73;;;;;;;;;;5093901;28;20202;-90
2023/03/02 11:33:04;;;;;;;1.03;0.53;;;;;;;;;;5093471;28;20259;-90
2023/03/02 11:35:52;;;;;;;0.10;0.10;;;;;;;;;;5093770;28;20200;-89
2023/03/02 11:38:30;;;;;;;1.90;0.77;;;;;;;;;;5094208;28;20206;-91
2023/03/02 11:41:08;;;;;;;2.13;0.97;;;;;;;;;;5094214;28;20222;-89
2023/03/02 11:43:37;;;;;;;0.60;0.23;;;;;;;;;;5094051;28;20190;-91
2023/03/02 11:46:17;;;;;;;0.97;0.40;;;;;;;;;;5093901;28;20626;-90
2023/03/02 11:49:12;;;;;;;0.17;0.17;;;;;;;;;;5093975;28;20281;-91
2023/03/02 11:52:15;;;;;;;2.50;0.57;;;;;;;;;;5093539;28;20297;-91
2023/03/02 11:54:48;;;;;;;0.30;0.30;;;;;;;;;;5093823;28;20216;-90
2023/03/02 11:57:24;;;;;;;0.20;0.20;;;;;;;;;;5094188;28;20193;-89
2023/03/02 11:59:57;;;;;;;0.10;0.10;;;;;;;;;;5094437;28;20630;-90
2023/03/02 12:02:28;;;;;;;12.73;0.43;;;;;;;;;;5094301;28;20202;-90
2023/03/02 12:05:14;;;;;;;0.00;0.00;;;;;;;;;;5093310;28;20226;-89
2023/03/02 12:07:58;;;;;;;0.30;0.30;;;;;;;;;;5092682;28;20589;-89
2023/03/02 12:10:51;;;;;;;0.53;0.53;;;;;;;;;;5094380;28;20217;-89
2023/03/02 12:16:54;;;;;;;0.60;0.60;;;;;;;;;;5088050;28;20275;-89
2023/03/02 12:19:36;;;;;;;0.23;0.23;;;;;;;;;;5093454;28;20204;-91
2023/03/02 12:24:59;;;;;;;0.37;0.37;;;;;;;;;;5093476;28;20241;-90
2023/03/02 12:27:36;;;;;;;0.00;0.00;;;;;;;;;;5093767;28;20197;-89
2023/03/02 12:33:29;;;;;;;0.40;0.40;;;;;;;;;;5078042;28;20715;-89
2023/03/02 12:36:12;;;;;;;0.07;0.07;;;;;;;;;;5093904;28;20202;-88
2023/03/02 12:42:09;;;;;;;0.53;0.40;;;;;;;;;;5082376;28;20289;-88
2023/03/02 12:44:46;;;;;;;0.30;0.30;;;;;;;;;;5099013;28;20289;-90
2023/03/02 12:47:16;;;;;;;0.77;0.77;;;;;;;;;;5098042;28;20201;-89
2023/03/02 12:49:55;;;;;;;0.60;0.60;;;;;;;;;;5097984;28;20202;-88
2023/03/02 12:52:45;;;;;;;0.40;0.40;;;;;;;;;;5099638;28;20265;-89
2023/03/02 12:55:19;;;;;;;0.40;0.40;;;;;;;;;;5097840;28;20276;-89
2023/03/02 12:57:50;;;;;;;0.17;0.17;;;;;;;;;;5098255;28;20193;-90
2023/03/02 13:00:32;;;;;;;;;;;;;;;;;;;;;
2023/03/02 13:05:58;;;;;;;0.30;0.30;;;;;;;;;;5090865;28;20269;-91
2023/03/02 13:11:21;;;;;;;0.30;0.30;;;;;;;;;;5095660;28;20237;-87
2023/03/02 13:13:55;;;;;;;0.40;0.33;;;;;;;;;;5096153;28;20232;-90
2023/03/02 13:16:32;;;;;;;0.00;0.00;;;;;;;;;;5097028;28;20270;-90
2023/03/02 13:19:09;;;;;;;0.47;0.43;;;;;;;;;;5097491;28;20672;-90
2023/03/02 13:24:49;;;;;;;0.37;0.37;;;;;;;;;;5093930;28;20226;-88
2023/03/02 13:27:33;;;;;;;0.13;0.13;;;;;;;;;;5102667;28;20222;-89
2023/03/02 13:30:18;;;;;;;0.63;0.63;;;;;;;;;;5106628;28;20197;-89
2023/03/02 13:32:58;;;;;;;0.20;0.20;;;;;;;;;;5104107;28;20306;-91
2023/03/02 13:38:28;;;;;;;0.40;0.40;;;;;;;;;;5092647;28;20253;-89
2023/03/02 13:41:05;;;;;;;0.50;0.50;;;;;;;;;;5105576;28;20204;-88
2023/03/02 13:43:57;;;;;;;1.10;0.67;;;;;;;;;;5108159;28;20661;-87
2023/03/02 13:46:47;;;;;;;1.20;0.80;;;;;;;;;;5095252;28;20619;-90
2023/03/02 13:49:31;;;;;;;0.60;0.30;;;;;;;;;;5108090;28;20205;-88
2023/03/02 13:52:15;;;;;;;1.53;0.77;;;;;;;;;;5106482;28;20190;-89
2023/03/02 13:55:03;;;;;;;0.20;0.20;;;;;;;;;;5104299;28;20586;-88
2023/03/02 13:57:46;;;;;;;0.93;0.93;;;;;;;;;;5106096;28;20204;-88
2023/03/02 14:00:28;;;;;;;2.73;0.70;;;;;;;;;;5105399;28;20201;-88
2023/03/02 14:03:22;;;;;;;0.40;0.20;;;;;;;;;;5103615;28;20221;-88
2023/03/02 14:06:05;;;;;;;0.30;0.30;;;;;;;;;;5101289;28;20322;-90
2023/03/02 14:09:01;;;;;;;0.20;0.20;;;;;;;;;;5100466;28;20257;-88
2023/03/02 14:11:39;;;;;;;0.00;0.00;;;;;;;;;;5101664;28;20235;-88
2023/03/02 14:14:37;;;;;;;1.07;1.07;;;;;;;;;;5105029;28;20208;-90
2023/03/02 14:17:15;;;;;;;0.47;0.37;;;;;;;;;;5095278;28;20194;-88
2023/03/02 14:19:57;;;;;;;0.77;0.60;;;;;;;;;;5103192;28;20206;-90
2023/03/02 14:22:50;;;;;;;;;;;;;;;;;;;;;
2023/03/02 14:25:23;;;;;;;0.30;0.27;;;;;;;;;;5102729;28;20226;-88
2023/03/02 14:27:57;;;;;;;0.40;0.40;;;;;;;;;;5101422;28;20206;-89
2023/03/02 14:30:33;;;;;;;0.17;0.17;;;;;;;;;;5101788;28;20197;-88
2023/03/02 14:33:08;;;;;;;3.40;1.13;;;;;;;;;;5101437;28;20262;-88
2023/03/02 14:35:43;;;;;;;0.10;0.10;;;;;;;;;;5103863;28;20181;-88
2023/03/02 14:38:13;;;;;;;0.00;0.00;;;;;;;;;;5083186;28;20232;-89
2023/03/02 14:40:48;;;;;;;0.60;0.60;;;;;;;;;;5085303;28;20206;-89
2023/03/02 14:43:25;;;;;;;0.87;0.87;;;;;;;;;;5082028;28;20267;-88
2023/03/02 14:46:13;;;;;;;0.50;0.33;;;;;;;;;;5079913;28;20230;-89
2023/03/02 14:48:50;;;;;;;0.53;0.40;;;;;;;;;;5082797;28;20199;-87
2023/03/02 14:51:24;;;;;;;1.30;0.67;;;;;;;;;;5082578;28;20186;-89
2023/03/02 14:54:07;;;;;;;0.40;0.40;;;;;;;;;;5080406;28;20221;-89
2023/03/02 14:56:45;;;;;;;0.63;0.63;;;;;;;;;;5081580;28;20202;-89
2023/03/02 14:59:17;;;;;;;0.20;0.20;;;;;;;;;;5079599;28;20265;-88
2023/03/02 15:01:47;;;;;;;0.30;0.30;;;;;;;;;;5080360;28;20199;-88
2023/03/02 15:04:41;;;;;;;1.43;0.57;;;;;;;;;;5080720;28;20190;-91
2023/03/02 15:07:16;;;;;;;1.87;0.57;;;;;;;;;;5081256;28;20237;-87
2023/03/02 15:09:53;;;;;;;1.07;1.07;;;;;;;;;;5082804;28;20244;-89
2023/03/02 15:12:22;;;;;;;0.47;0.47;;;;;;;;;;5083808;28;20233;-88
2023/03/02 15:14:54;;;;;;;0.10;0.10;;;;;;;;;;5066429;28;20190;-87
2023/03/02 15:17:23;;;;;;;0.87;0.87;;;;;;;;;;5082601;28;20199;-89
2023/03/02 15:19:55;;;;;;;0.70;0.70;;;;;;;;;;5084630;28;20214;-88
2023/03/02 15:22:33;;;;;;;0.63;0.20;;;;;;;;;;5083909;28;20202;-87
2023/03/02 15:25:01;;;;;;;0.83;0.80;;;;;;;;;;5080062;28;20230;-90
2023/03/02 15:27:37;;;;;;;0.10;0.10;;;;;;;;;;5077352;28;20194;-90
2023/03/02 15:30:18;;;;;;;;;;;;;;;;;;;;;
2023/03/02 15:33:10;;;;;;;;;;;;;;;;;;;;;
2023/03/02 15:35:58;;;;;;;0.20;0.20;;;;;;;;;;5074430;28;20203;-89
2023/03/02 15:38:29;;;;;;;0.57;0.57;;;;;;;;;;5032132;28;20206;-89
2023/03/02 15:40:58;;;;;;;1.27;0.57;;;;;;;;;;5073370;28;20190;-90
2023/03/02 15:43:44;;;;;;;0.50;0.50;;;;;;;;;;5073816;28;20647;-88
2023/03/02 15:46:25;;;;;;;;;;;;;;;;;;;;;
2023/03/02 15:49:08;;;;;;;0.20;0.20;;;;;;;;;;5073073;28;20213;-88
2023/03/02 15:51:42;;;;;;;0.23;0.23;;;;;;;;;;5073095;28;20633;-88
2023/03/02 15:54:18;;;;;;;1.37;0.83;;;;;;;;;;5073116;28;20198;-89
2023/03/02 15:56:55;;;;;;;0.97;0.87;;;;;;;;;;5073435;28;20210;-89
2023/03/02 15:59:37;;;;;;;0.70;0.70;;;;;;;;;;5073425;28;20204;-89
2023/03/02 16:02:08;;;;;;;0.20;0.20;;;;;;;;;;5072381;28;20592;-90
2023/03/02 16:04:47;;;;;;;0.67;0.67;;;;;;;;;;5073009;28;20198;-90
2023/03/02 16:07:18;;;;;;;0.30;0.30;;;;;;;;;;5072682;28;20237;-91
2023/03/02 16:10:07;;;;;;;0.10;0.10;;;;;;;;;;5072764;28;20691;-89
2023/03/02 16:12:38;;;;;;;0.87;0.87;;;;;;;;;;5075277;28;20205;-89
2023/03/02 16:15:15;;;;;;;0.23;0.23;;;;;;;;;;5074460;28;20202;-88
2023/03/02 16:17:45;;;;;;;0.33;0.33;;;;;;;;;;5077029;28;20250;-89
2023/03/02 16:20:15;;;;;;;1.40;0.50;;;;;;;;;;5077171;28;20222;-90
2023/03/02 16:22:53;;;;;;;0.30;0.30;;;;;;;;;;5072880;28;20195;-88
2023/03/02 16:25:32;;;;;;;0.20;0.20;;;;;;;;;;5073725;28;20600;-88
2023/03/02 16:33:51;;;;;;;0.07;0.07;;;;;;;;;;5069057;28;20194;-89
2023/03/02 16:36:46;;;;;;;0.90;0.73;;;;;;;;;;5077021;28;20230;-88
2023/03/02 16:39:24;;;;;;;0.20;0.20;;;;;;;;;;5092910;28;20698;-89
2023/03/02 16:42:08;;;;;;;1.60;0.87;;;;;;;;;;5093884;28;20217;-88
2023/03/02 16:44:44;;;;;;;0.40;0.40;;;;;;;;;;5096839;28;20198;-88
2023/03/02 16:47:14;;;;;;;0.33;0.33;;;;;;;;;;5099977;28;20233;-89
2023/03/02 16:52:34;;;;;;;0.90;0.53;;;;;;;;;;5091252;28;20201;-89
2023/03/02 16:55:25;;;;;;;;;;;;;;;;;;;;;
2023/03/02 16:58:00;;;;;;;0.97;0.87;;;;;;;;;;5092908;28;20654;-89
2023/03/02 17:00:40;;;;;;;0.10;0.10;;;;;;;;;;5092702;28;20562;-89
2023/03/02 17:03:14;;;;;;;1.70;0.63;;;;;;;;;;5092760;28;20214;-90
2023/03/02 17:06:00;;;;;;;0.30;0.30;;;;;;;;;;5092854;28;20238;-89
2023/03/02 17:08:49;;;;;;;0.17;0.17;;;;;;;;;;5093586;28;20205;-90
2023/03/02 17:11:19;;;;;;;0.40;0.40;;;;;;;;;;5038391;28;20224;-88
2023/03/02 17:13:55;;;;;;;1.53;0.43;;;;;;;;;;5093939;28;20663;-89
2023/03/02 17:16:35;;;;;;;0.30;0.30;;;;;;;;;;5095307;28;20209;-88
2023/03/02 17:19:07;;;;;;;1.57;1.47;;;;;;;;;;5110870;28;20224;-88
2023/03/02 17:21:39;;;;;;;1.67;0.77;;;;;;;;;;5112865;28;20196;-88
2023/03/02 17:24:23;;;;;;;1.87;0.57;;;;;;;;;;5113989;28;20202;-88
2023/03/02 17:32:57;;;;;;;1.70;0.60;;;;;;;;;;5095514;28;20208;-89
2023/03/02 17:35:30;;;;;;;0.20;0.20;;;;;;;;;;5096458;28;20198;-89
2023/03/02 17:38:00;;;;;;;0.40;0.40;;;;;;;;;;5097752;28;20698;-89
2023/03/02 17:43:21;;;;;;;0.90;0.90;;;;;;;;;;5098841;28;20201;-88
2023/03/02 17:49:08;;;;;;;1.03;0.23;;;;;;;;;;5093620;28;20206;-88
2023/03/02 17:51:54;;;;;;;0.83;0.83;;;;;;;;;;5096560;28;20221;-89